PWSweather.com
Personal Weather Stations
Station Observations
SPARKSRC
St. Petersburg, FL 33716

St. Petersburg, FL 33716

Lat: 27.876101, Lon: -82.657194

Elevation: 13

Station Type: Zephyr PWS-1000TD

High Low Average
Temperature 98.1°F36.7°F 63.9°F17.7°F 76.1°F24.5°F
Dew Point 67.1°F19.5°F 54.8°F12.7°F 59.7°F15.4°F
Winds 13.0 mph ESE20.9 mph ESE 0.7 mph 1.1 mph 5.7 mph 9.2 mph
Wind Gusts 15.9 mph25.6 mph 3.1 mph5.0 mph 10.6 mph17.1 mph
Humidity 76% 34% 59%
Pressure 30.38 in1028.80 in 30.18 in1022.00 in -
Precipitation 0.00 in0.00 in - -
Hour Temp Dew Point Humidity Winds Wind Gusts Pressure Precip Precip Rate Daily Precip Total
12:00 AM 69.1°F20.6°C 56.8°F13.8°C 65% 9.8 mph E15.8 kmh E 14.5 mph23.3 kmh 30.38 in1028.8 mb 0.00 in0.0 mm 0.00 in0.0 mm 0.00 in0.0 mm
12:05 AM 68.9°F20.5°C 56.7°F13.7°C 65% 6.0 mph E9.7 kmh E 14.5 mph23.3 kmh 30.38 in1028.8 mb 0.00 in0.0 mm 0.00 in0.0 mm 0.00 in0.0 mm
12:10 AM 68.9°F20.5°C 56.7°F13.7°C 65% 10.7 mph E17.2 kmh E 15.2 mph24.5 kmh 30.38 in1028.8 mb 0.00 in0.0 mm 0.00 in0.0 mm 0.00 in0.0 mm
12:15 AM 68.9°F20.5°C 57.1°F13.9°C 66% 8.3 mph E13.4 kmh E 15.9 mph25.6 kmh 30.38 in1028.8 mb 0.00 in0.0 mm 0.00 in0.0 mm 0.00 in0.0 mm
12:20 AM 68.7°F20.4°C 56.9°F13.8°C 66% 9.2 mph E14.8 kmh E 15.9 mph25.6 kmh 30.38 in1028.8 mb 0.00 in0.0 mm 0.00 in0.0 mm 0.00 in0.0 mm
12:25 AM 68.7°F20.4°C 56.9°F13.8°C 66% 7.6 mph E12.2 kmh E 14.5 mph23.3 kmh 30.38 in1028.8 mb 0.00 in0.0 mm 0.00 in0.0 mm 0.00 in0.0 mm
12:30 AM 68.5°F20.3°C 56.8°F13.8°C 66% 6.0 mph E9.7 kmh E 13.6 mph21.9 kmh 30.38 in1028.8 mb 0.00 in0.0 mm 0.00 in0.0 mm 0.00 in0.0 mm
12:35 AM 68.5°F20.3°C 57.2°F14.0°C 67% 6.0 mph E9.7 kmh E 15.9 mph25.6 kmh 30.38 in1028.8 mb 0.00 in0.0 mm 0.00 in0.0 mm 0.00 in0.0 mm
12:40 AM 68.5°F20.3°C 57.2°F14.0°C 67% 5.4 mph E8.7 kmh E 15.9 mph25.6 kmh 30.38 in1028.8 mb 0.00 in0.0 mm 0.00 in0.0 mm 0.00 in0.0 mm
12:45 AM 68.4°F20.2°C 57.0°F13.9°C 67% 9.2 mph E14.8 kmh E 13.0 mph20.9 kmh 30.38 in1028.8 mb 0.00 in0.0 mm 0.00 in0.0 mm 0.00 in0.0 mm
12:50 AM 68.2°F20.1°C 56.8°F13.8°C 67% 7.6 mph E12.2 kmh E 13.0 mph20.9 kmh 30.38 in1028.8 mb 0.00 in0.0 mm 0.00 in0.0 mm 0.00 in0.0 mm
12:55 AM 68.2°F20.1°C 57.2°F14.0°C 68% 4.5 mph E7.2 kmh E 13.0 mph20.9 kmh 30.38 in1028.8 mb 0.00 in0.0 mm 0.00 in0.0 mm 0.00 in0.0 mm
01:00 AM 68.2°F20.1°C 57.2°F14.0°C 68% 6.9 mph E11.1 kmh E 11.4 mph18.3 kmh 30.38 in1028.8 mb 0.00 in0.0 mm 0.00 in0.0 mm 0.00 in0.0 mm
01:05 AM 67.8°F19.9°C 56.9°F13.8°C 68% 6.9 mph E11.1 kmh E 11.4 mph18.3 kmh 30.38 in1028.8 mb 0.00 in0.0 mm 0.00 in0.0 mm 0.00 in0.0 mm
01:10 AM 67.8°F19.9°C 56.9°F13.8°C 68% 6.9 mph E11.1 kmh E 9.8 mph15.8 kmh 30.37 in1028.4 mb 0.00 in0.0 mm 0.00 in0.0 mm 0.00 in0.0 mm
01:15 AM 67.6°F19.8°C 57.1°F13.9°C 69% 6.9 mph E11.1 kmh E 11.4 mph18.3 kmh 30.38 in1028.8 mb 0.00 in0.0 mm 0.00 in0.0 mm 0.00 in0.0 mm
01:20 AM 67.8°F19.9°C 57.3°F14.1°C 69% 5.4 mph E8.7 kmh E 11.4 mph18.3 kmh 30.37 in1028.4 mb 0.00 in0.0 mm 0.00 in0.0 mm 0.00 in0.0 mm
01:25 AM 67.6°F19.8°C 57.1°F13.9°C 69% 7.6 mph E12.2 kmh E 10.7 mph17.2 kmh 30.37 in1028.4 mb 0.00 in0.0 mm 0.00 in0.0 mm 0.00 in0.0 mm
01:30 AM 67.5°F19.7°C 57.0°F13.9°C 69% 7.6 mph E12.2 kmh E 11.4 mph18.3 kmh 30.37 in1028.4 mb 0.00 in0.0 mm 0.00 in0.0 mm 0.00 in0.0 mm
01:35 AM 67.5°F19.7°C 57.0°F13.9°C 69% 8.3 mph E13.4 kmh E 11.4 mph18.3 kmh 30.36 in1028.1 mb 0.00 in0.0 mm 0.00 in0.0 mm 0.00 in0.0 mm
01:40 AM 67.3°F19.6°C 57.2°F14.0°C 70% 4.5 mph E7.2 kmh E 10.7 mph17.2 kmh 30.36 in1028.1 mb 0.00 in0.0 mm 0.00 in0.0 mm 0.00 in0.0 mm
01:45 AM 67.1°F19.5°C 57.0°F13.9°C 70% 6.0 mph E9.7 kmh E 10.7 mph17.2 kmh 30.36 in1028.1 mb 0.00 in0.0 mm 0.00 in0.0 mm 0.00 in0.0 mm
01:50 AM 67.1°F19.5°C 57.0°F13.9°C 70% 6.0 mph E9.7 kmh E 10.7 mph17.2 kmh 30.36 in1028.1 mb 0.00 in0.0 mm 0.00 in0.0 mm 0.00 in0.0 mm
01:55 AM 66.9°F19.4°C 56.8°F13.8°C 70% 6.0 mph E9.7 kmh E 10.7 mph17.2 kmh 30.36 in1028.1 mb 0.00 in0.0 mm 0.00 in0.0 mm 0.00 in0.0 mm
02:00 AM 66.9°F19.4°C 56.8°F13.8°C 70% 5.4 mph E8.7 kmh E 10.7 mph17.2 kmh 30.35 in1027.8 mb 0.00 in0.0 mm 0.00 in0.0 mm 0.00 in0.0 mm
02:05 AM 66.7°F19.3°C 56.7°F13.7°C 70% 5.4 mph E8.7 kmh E 10.7 mph17.2 kmh 30.35 in1027.8 mb 0.00 in0.0 mm 0.00 in0.0 mm 0.00 in0.0 mm
02:10 AM 66.7°F19.3°C 57.1°F13.9°C 71% 6.0 mph E9.7 kmh E 9.8 mph15.8 kmh 30.35 in1027.8 mb 0.00 in0.0 mm 0.00 in0.0 mm 0.00 in0.0 mm
02:15 AM 66.6°F19.2°C 56.9°F13.8°C 71% 6.0 mph E9.7 kmh E 9.8 mph15.8 kmh 30.34 in1027.4 mb 0.00 in0.0 mm 0.00 in0.0 mm 0.00 in0.0 mm
02:20 AM 66.4°F19.1°C 56.7°F13.7°C 71% 4.5 mph E7.2 kmh E 10.7 mph17.2 kmh 30.35 in1027.8 mb 0.00 in0.0 mm 0.00 in0.0 mm 0.00 in0.0 mm
02:25 AM 66.4°F19.1°C 56.7°F13.7°C 71% 6.0 mph E9.7 kmh E 10.7 mph17.2 kmh 30.34 in1027.4 mb 0.00 in0.0 mm 0.00 in0.0 mm 0.00 in0.0 mm
02:30 AM 66.2°F19.0°C 56.5°F13.6°C 71% 5.4 mph E8.7 kmh E 9.8 mph15.8 kmh 30.34 in1027.4 mb 0.00 in0.0 mm 0.00 in0.0 mm 0.00 in0.0 mm
02:35 AM 66.0°F18.9°C 56.8°F13.8°C 72% 6.0 mph E9.7 kmh E 9.8 mph15.8 kmh 30.35 in1027.8 mb 0.00 in0.0 mm 0.00 in0.0 mm 0.00 in0.0 mm
02:40 AM 65.8°F18.8°C 56.6°F13.7°C 72% 5.4 mph E8.7 kmh E 8.3 mph13.4 kmh 30.34 in1027.4 mb 0.00 in0.0 mm 0.00 in0.0 mm 0.00 in0.0 mm
02:45 AM 65.7°F18.7°C 56.4°F13.6°C 72% 2.2 mph E3.5 kmh E 8.3 mph13.4 kmh 30.34 in1027.4 mb 0.00 in0.0 mm 0.00 in0.0 mm 0.00 in0.0 mm
02:50 AM 65.5°F18.6°C 55.8°F13.2°C 71% 2.2 mph E3.5 kmh E 8.3 mph13.4 kmh 30.34 in1027.4 mb 0.00 in0.0 mm 0.00 in0.0 mm 0.00 in0.0 mm
02:55 AM 65.3°F18.5°C 55.7°F13.2°C 71% 2.2 mph E3.5 kmh E 6.9 mph11.1 kmh 30.34 in1027.4 mb 0.00 in0.0 mm 0.00 in0.0 mm 0.00 in0.0 mm
03:00 AM 65.3°F18.5°C 55.7°F13.2°C 71% 4.5 mph E7.2 kmh E 8.3 mph13.4 kmh 30.34 in1027.4 mb 0.00 in0.0 mm 0.00 in0.0 mm 0.00 in0.0 mm
03:05 AM 65.1°F18.4°C 55.5°F13.1°C 71% 2.2 mph E3.5 kmh E 8.3 mph13.4 kmh 30.34 in1027.4 mb 0.00 in0.0 mm 0.00 in0.0 mm 0.00 in0.0 mm
03:10 AM 64.9°F18.3°C 55.7°F13.2°C 72% 2.2 mph E3.5 kmh E 6.9 mph11.1 kmh 30.34 in1027.4 mb 0.00 in0.0 mm 0.00 in0.0 mm 0.00 in0.0 mm
03:15 AM 64.9°F18.3°C 55.3°F12.9°C 71% 3.1 mph E5.0 kmh E 5.4 mph8.7 kmh 30.34 in1027.4 mb 0.00 in0.0 mm 0.00 in0.0 mm 0.00 in0.0 mm
03:20 AM 64.8°F18.2°C 55.2°F12.9°C 71% 4.5 mph E7.2 kmh E 6.0 mph9.7 kmh 30.33 in1027.1 mb 0.00 in0.0 mm 0.00 in0.0 mm 0.00 in0.0 mm
03:25 AM 64.6°F18.1°C 55.4°F13.0°C 72% 3.8 mph E6.1 kmh E 8.3 mph13.4 kmh 30.33 in1027.1 mb 0.00 in0.0 mm 0.00 in0.0 mm 0.00 in0.0 mm
03:30 AM 64.6°F18.1°C 55.4°F13.0°C 72% 4.5 mph E7.2 kmh E 8.3 mph13.4 kmh 30.33 in1027.1 mb 0.00 in0.0 mm 0.00 in0.0 mm 0.00 in0.0 mm
03:35 AM 64.4°F18.0°C 55.2°F12.9°C 72% 3.8 mph E6.1 kmh E 6.9 mph11.1 kmh 30.33 in1027.1 mb 0.00 in0.0 mm 0.00 in0.0 mm 0.00 in0.0 mm
03:40 AM 64.4°F18.0°C 55.2°F12.9°C 72% 4.5 mph E7.2 kmh E 7.6 mph12.2 kmh 30.33 in1027.1 mb 0.00 in0.0 mm 0.00 in0.0 mm 0.00 in0.0 mm
03:45 AM 64.4°F18.0°C 55.2°F12.9°C 72% 3.8 mph E6.1 kmh E 7.6 mph12.2 kmh 30.33 in1027.1 mb 0.00 in0.0 mm 0.00 in0.0 mm 0.00 in0.0 mm
03:50 AM 64.2°F17.9°C 55.0°F12.8°C 72% 3.1 mph E5.0 kmh E 7.6 mph12.2 kmh 30.32 in1026.8 mb 0.00 in0.0 mm 0.00 in0.0 mm 0.00 in0.0 mm
03:55 AM 64.2°F17.9°C 55.0°F12.8°C 72% 5.4 mph E8.7 kmh E 7.6 mph12.2 kmh 30.32 in1026.8 mb 0.00 in0.0 mm 0.00 in0.0 mm 0.00 in0.0 mm
04:00 AM 64.2°F17.9°C 55.0°F12.8°C 72% 6.0 mph E9.7 kmh E 8.3 mph13.4 kmh 30.32 in1026.8 mb 0.00 in0.0 mm 0.00 in0.0 mm 0.00 in0.0 mm
04:05 AM 64.2°F17.9°C 55.0°F12.8°C 72% 5.4 mph E8.7 kmh E 9.2 mph14.8 kmh 30.32 in1026.8 mb 0.00 in0.0 mm 0.00 in0.0 mm 0.00 in0.0 mm
04:10 AM 64.2°F17.9°C 55.0°F12.8°C 72% 5.4 mph E8.7 kmh E 13.0 mph20.9 kmh 30.32 in1026.8 mb 0.00 in0.0 mm 0.00 in0.0 mm 0.00 in0.0 mm
04:15 AM 64.2°F17.9°C 55.0°F12.8°C 72% 7.6 mph E12.2 kmh E 13.0 mph20.9 kmh 30.32 in1026.8 mb 0.00 in0.0 mm 0.00 in0.0 mm 0.00 in0.0 mm
04:20 AM 64.2°F17.9°C 55.0°F12.8°C 72% 5.4 mph E8.7 kmh E 10.7 mph17.2 kmh 30.31 in1026.4 mb 0.00 in0.0 mm 0.00 in0.0 mm 0.00 in0.0 mm
04:25 AM 64.2°F17.9°C 55.0°F12.8°C 72% 7.6 mph E12.2 kmh E 10.7 mph17.2 kmh 30.31 in1026.4 mb 0.00 in0.0 mm 0.00 in0.0 mm 0.00 in0.0 mm
04:30 AM 64.2°F17.9°C 55.0°F12.8°C 72% 6.9 mph E11.1 kmh E 10.7 mph17.2 kmh 30.31 in1026.4 mb 0.00 in0.0 mm 0.00 in0.0 mm 0.00 in0.0 mm
04:35 AM 64.2°F17.9°C 55.0°F12.8°C 72% 8.3 mph E13.4 kmh E 11.4 mph18.3 kmh 30.31 in1026.4 mb 0.00 in0.0 mm 0.00 in0.0 mm 0.00 in0.0 mm
04:40 AM 64.4°F18.0°C 55.2°F12.9°C 72% 5.4 mph E8.7 kmh E 12.1 mph19.5 kmh 30.30 in1026.1 mb 0.00 in0.0 mm 0.00 in0.0 mm 0.00 in0.0 mm
04:45 AM 64.2°F17.9°C 55.0°F12.8°C 72% 7.6 mph E12.2 kmh E 12.1 mph19.5 kmh 30.30 in1026.1 mb 0.00 in0.0 mm 0.00 in0.0 mm 0.00 in0.0 mm
04:50 AM 64.2°F17.9°C 55.0°F12.8°C 72% 4.5 mph ESE7.2 kmh ESE 11.4 mph18.3 kmh 30.30 in1026.1 mb 0.00 in0.0 mm 0.00 in0.0 mm 0.00 in0.0 mm
04:55 AM 64.2°F17.9°C 55.0°F12.8°C 72% 5.4 mph ESE8.7 kmh ESE 10.7 mph17.2 kmh 30.30 in1026.1 mb 0.00 in0.0 mm 0.00 in0.0 mm 0.00 in0.0 mm
05:00 AM 64.2°F17.9°C 55.0°F12.8°C 72% 6.0 mph E9.7 kmh E 10.7 mph17.2 kmh 30.30 in1026.1 mb 0.00 in0.0 mm 0.00 in0.0 mm 0.00 in0.0 mm
05:05 AM 64.2°F17.9°C 55.0°F12.8°C 72% 6.9 mph E11.1 kmh E 10.7 mph17.2 kmh 30.30 in1026.1 mb 0.00 in0.0 mm 0.00 in0.0 mm 0.00 in0.0 mm
05:10 AM 64.0°F17.8°C 54.8°F12.7°C 72% 4.5 mph E7.2 kmh E 9.2 mph14.8 kmh 30.30 in1026.1 mb 0.00 in0.0 mm 0.00 in0.0 mm 0.00 in0.0 mm
05:15 AM 64.0°F17.8°C 55.2°F12.9°C 73% 5.4 mph E8.7 kmh E 9.8 mph15.8 kmh 30.30 in1026.1 mb 0.00 in0.0 mm 0.00 in0.0 mm 0.00 in0.0 mm
05:20 AM 64.0°F17.8°C 55.2°F12.9°C 73% 6.0 mph E9.7 kmh E 9.8 mph15.8 kmh 30.30 in1026.1 mb 0.00 in0.0 mm 0.00 in0.0 mm 0.00 in0.0 mm
05:25 AM 64.0°F17.8°C 55.2°F12.9°C 73% 6.0 mph E9.7 kmh E 9.8 mph15.8 kmh 30.30 in1026.1 mb 0.00 in0.0 mm 0.00 in0.0 mm 0.00 in0.0 mm
05:30 AM 64.0°F17.8°C 55.2°F12.9°C 73% 6.0 mph E9.7 kmh E 9.8 mph15.8 kmh 30.30 in1026.1 mb 0.00 in0.0 mm 0.00 in0.0 mm 0.00 in0.0 mm
05:35 AM 63.9°F17.7°C 55.1°F12.8°C 73% 6.0 mph E9.7 kmh E 9.8 mph15.8 kmh 30.30 in1026.1 mb 0.00 in0.0 mm 0.00 in0.0 mm 0.00 in0.0 mm
05:40 AM 64.0°F17.8°C 55.2°F12.9°C 73% 6.0 mph E9.7 kmh E 9.8 mph15.8 kmh 30.30 in1026.1 mb 0.00 in0.0 mm 0.00 in0.0 mm 0.00 in0.0 mm
05:45 AM 63.9°F17.7°C 55.1°F12.8°C 73% 5.4 mph E8.7 kmh E 9.8 mph15.8 kmh 30.30 in1026.1 mb 0.00 in0.0 mm 0.00 in0.0 mm 0.00 in0.0 mm
05:50 AM 63.9°F17.7°C 55.1°F12.8°C 73% 6.0 mph ESE9.7 kmh ESE 8.3 mph13.4 kmh 30.29 in1025.7 mb 0.00 in0.0 mm 0.00 in0.0 mm 0.00 in0.0 mm
05:55 AM 63.9°F17.7°C 55.1°F12.8°C 73% 6.9 mph ESE11.1 kmh ESE 10.7 mph17.2 kmh 30.30 in1026.1 mb 0.00 in0.0 mm 0.00 in0.0 mm 0.00 in0.0 mm
06:00 AM 63.9°F17.7°C 55.1°F12.8°C 73% 6.9 mph E11.1 kmh E 10.7 mph17.2 kmh 30.30 in1026.1 mb 0.00 in0.0 mm 0.00 in0.0 mm 0.00 in0.0 mm
06:05 AM 63.9°F17.7°C 55.1°F12.8°C 73% 6.9 mph E11.1 kmh E 10.7 mph17.2 kmh 30.29 in1025.7 mb 0.00 in0.0 mm 0.00 in0.0 mm 0.00 in0.0 mm
06:10 AM 64.0°F17.8°C 55.2°F12.9°C 73% 5.4 mph E8.7 kmh E 10.7 mph17.2 kmh 30.29 in1025.7 mb 0.00 in0.0 mm 0.00 in0.0 mm 0.00 in0.0 mm
06:15 AM 64.0°F17.8°C 55.6°F13.1°C 74% 6.0 mph E9.7 kmh E 10.7 mph17.2 kmh 30.29 in1025.7 mb 0.00 in0.0 mm 0.00 in0.0 mm 0.00 in0.0 mm
06:20 AM 64.0°F17.8°C 55.6°F13.1°C 74% 5.4 mph E8.7 kmh E 10.7 mph17.2 kmh 30.29 in1025.7 mb 0.00 in0.0 mm 0.00 in0.0 mm 0.00 in0.0 mm
06:25 AM 64.0°F17.8°C 55.6°F13.1°C 74% 8.3 mph E13.4 kmh E 10.7 mph17.2 kmh 30.29 in1025.7 mb 0.00 in0.0 mm 0.00 in0.0 mm 0.00 in0.0 mm
06:30 AM 64.0°F17.8°C 55.6°F13.1°C 74% 5.4 mph E8.7 kmh E 10.7 mph17.2 kmh 30.29 in1025.7 mb 0.00 in0.0 mm 0.00 in0.0 mm 0.00 in0.0 mm
06:35 AM 64.2°F17.9°C 55.8°F13.2°C 74% 6.9 mph E11.1 kmh E 10.7 mph17.2 kmh 30.29 in1025.7 mb 0.00 in0.0 mm 0.00 in0.0 mm 0.00 in0.0 mm
06:40 AM 64.0°F17.8°C 55.6°F13.1°C 74% 6.9 mph E11.1 kmh E 10.7 mph17.2 kmh 30.29 in1025.7 mb 0.00 in0.0 mm 0.00 in0.0 mm 0.00 in0.0 mm
06:45 AM 64.2°F17.9°C 56.1°F13.4°C 75% 6.9 mph E11.1 kmh E 10.7 mph17.2 kmh 30.29 in1025.7 mb 0.00 in0.0 mm 0.00 in0.0 mm 0.00 in0.0 mm
06:50 AM 64.2°F17.9°C 56.1°F13.4°C 75% 5.4 mph E8.7 kmh E 10.7 mph17.2 kmh 30.29 in1025.7 mb 0.00 in0.0 mm 0.00 in0.0 mm 0.00 in0.0 mm
06:55 AM 64.2°F17.9°C 56.1°F13.4°C 75% 6.0 mph E9.7 kmh E 9.2 mph14.8 kmh 30.29 in1025.7 mb 0.00 in0.0 mm 0.00 in0.0 mm 0.00 in0.0 mm
07:00 AM 64.0°F17.8°C 56.0°F13.3°C 75% 4.5 mph E7.2 kmh E 9.2 mph14.8 kmh 30.29 in1025.7 mb 0.00 in0.0 mm 0.00 in0.0 mm 0.00 in0.0 mm
07:05 AM 64.0°F17.8°C 56.0°F13.3°C 75% 5.4 mph E8.7 kmh E 10.7 mph17.2 kmh 30.30 in1026.1 mb 0.00 in0.0 mm 0.00 in0.0 mm 0.00 in0.0 mm
07:10 AM 64.0°F17.8°C 56.0°F13.3°C 75% 7.6 mph E12.2 kmh E 11.4 mph18.3 kmh 30.30 in1026.1 mb 0.00 in0.0 mm 0.00 in0.0 mm 0.00 in0.0 mm
07:15 AM 64.0°F17.8°C 56.3°F13.5°C 76% 4.5 mph E7.2 kmh E 11.4 mph18.3 kmh 30.30 in1026.1 mb 0.00 in0.0 mm 0.00 in0.0 mm 0.00 in0.0 mm
07:20 AM 64.0°F17.8°C 56.0°F13.3°C 75% 4.5 mph E7.2 kmh E 10.7 mph17.2 kmh 30.30 in1026.1 mb 0.00 in0.0 mm 0.00 in0.0 mm 0.00 in0.0 mm
07:25 AM 64.0°F17.8°C 56.0°F13.3°C 75% 5.4 mph E8.7 kmh E 8.3 mph13.4 kmh 30.30 in1026.1 mb 0.00 in0.0 mm 0.00 in0.0 mm 0.00 in0.0 mm
07:30 AM 63.9°F17.7°C 55.8°F13.2°C 75% 3.1 mph ESE5.0 kmh ESE 8.3 mph13.4 kmh 30.31 in1026.4 mb 0.00 in0.0 mm 0.00 in0.0 mm 0.00 in0.0 mm
07:35 AM 63.9°F17.7°C 55.8°F13.2°C 75% 5.4 mph ESE8.7 kmh ESE 7.6 mph12.2 kmh 30.31 in1026.4 mb 0.00 in0.0 mm 0.00 in0.0 mm 0.00 in0.0 mm
07:40 AM 63.9°F17.7°C 55.8°F13.2°C 75% 3.8 mph ESE6.1 kmh ESE 6.9 mph11.1 kmh 30.31 in1026.4 mb 0.00 in0.0 mm 0.00 in0.0 mm 0.00 in0.0 mm
07:45 AM 63.9°F17.7°C 55.8°F13.2°C 75% 6.9 mph E11.1 kmh E 9.2 mph14.8 kmh 30.31 in1026.4 mb 0.00 in0.0 mm 0.00 in0.0 mm 0.00 in0.0 mm
07:50 AM 64.0°F17.8°C 56.3°F13.5°C 76% 6.9 mph E11.1 kmh E 9.8 mph15.8 kmh 30.31 in1026.4 mb 0.00 in0.0 mm 0.00 in0.0 mm 0.00 in0.0 mm
07:55 AM 64.2°F17.9°C 56.5°F13.6°C 76% 8.3 mph E13.4 kmh E 9.8 mph15.8 kmh 30.31 in1026.4 mb 0.00 in0.0 mm 0.00 in0.0 mm 0.00 in0.0 mm
08:00 AM 64.4°F18.0°C 56.7°F13.7°C 76% 6.0 mph E9.7 kmh E 9.8 mph15.8 kmh 30.32 in1026.8 mb 0.00 in0.0 mm 0.00 in0.0 mm 0.00 in0.0 mm
08:05 AM 64.8°F18.2°C 57.0°F13.9°C 76% 4.5 mph E7.2 kmh E 9.8 mph15.8 kmh 30.32 in1026.8 mb 0.00 in0.0 mm 0.00 in0.0 mm 0.00 in0.0 mm
08:10 AM 65.1°F18.4°C 57.4°F14.1°C 76% 3.8 mph E6.1 kmh E 8.3 mph13.4 kmh 30.32 in1026.8 mb 0.00 in0.0 mm 0.00 in0.0 mm 0.00 in0.0 mm
08:15 AM 65.5°F18.6°C 57.4°F14.1°C 75% 4.5 mph E7.2 kmh E 8.3 mph13.4 kmh 30.32 in1026.8 mb 0.00 in0.0 mm 0.00 in0.0 mm 0.00 in0.0 mm
08:20 AM 65.3°F18.5°C 57.2°F14.0°C 75% 6.0 mph E9.7 kmh E 10.7 mph17.2 kmh 30.33 in1027.1 mb 0.00 in0.0 mm 0.00 in0.0 mm 0.00 in0.0 mm
08:25 AM 65.5°F18.6°C 57.4°F14.1°C 75% 5.4 mph E8.7 kmh E 10.7 mph17.2 kmh 30.33 in1027.1 mb 0.00 in0.0 mm 0.00 in0.0 mm 0.00 in0.0 mm
08:30 AM 65.5°F18.6°C 57.4°F14.1°C 75% 2.2 mph E3.5 kmh E 8.3 mph13.4 kmh 30.34 in1027.4 mb 0.00 in0.0 mm 0.00 in0.0 mm 0.00 in0.0 mm
08:35 AM 65.7°F18.7°C 57.5°F14.2°C 75% 5.4 mph E8.7 kmh E 8.3 mph13.4 kmh 30.34 in1027.4 mb 0.00 in0.0 mm 0.00 in0.0 mm 0.00 in0.0 mm
08:40 AM 66.0°F18.9°C 57.9°F14.4°C 75% 3.8 mph E6.1 kmh E 7.6 mph12.2 kmh 30.34 in1027.4 mb 0.00 in0.0 mm 0.00 in0.0 mm 0.00 in0.0 mm
08:45 AM 66.9°F19.4°C 58.8°F14.9°C 75% 5.4 mph E8.7 kmh E 7.6 mph12.2 kmh 30.35 in1027.8 mb 0.00 in0.0 mm 0.00 in0.0 mm 0.00 in0.0 mm
08:50 AM 68.2°F20.1°C 59.6°F15.3°C 74% 4.5 mph E7.2 kmh E 7.6 mph12.2 kmh 30.35 in1027.8 mb 0.00 in0.0 mm 0.00 in0.0 mm 0.00 in0.0 mm
08:55 AM 68.7°F20.4°C 59.7°F15.4°C 73% 3.1 mph E5.0 kmh E 7.6 mph12.2 kmh 30.34 in1027.4 mb 0.00 in0.0 mm 0.00 in0.0 mm 0.00 in0.0 mm
09:00 AM 69.4°F20.8°C 60.0°F15.6°C 72% 6.0 mph ESE9.7 kmh ESE 8.3 mph13.4 kmh 30.34 in1027.4 mb 0.00 in0.0 mm 0.00 in0.0 mm 0.00 in0.0 mm
09:05 AM 69.6°F20.9°C 59.8°F15.4°C 71% 6.0 mph E9.7 kmh E 9.8 mph15.8 kmh 30.35 in1027.8 mb 0.00 in0.0 mm 0.00 in0.0 mm 0.00 in0.0 mm
09:10 AM 69.6°F20.9°C 59.8°F15.4°C 71% 6.0 mph E9.7 kmh E 9.8 mph15.8 kmh 30.34 in1027.4 mb 0.00 in0.0 mm 0.00 in0.0 mm 0.00 in0.0 mm
09:15 AM 70.0°F21.1°C 60.2°F15.7°C 71% 8.3 mph E13.4 kmh E 10.7 mph17.2 kmh 30.35 in1027.8 mb 0.00 in0.0 mm 0.00 in0.0 mm 0.00 in0.0 mm
09:20 AM 70.2°F21.2°C 60.3°F15.7°C 71% 8.3 mph E13.4 kmh E 11.4 mph18.3 kmh 30.35 in1027.8 mb 0.00 in0.0 mm 0.00 in0.0 mm 0.00 in0.0 mm
09:25 AM 70.0°F21.1°C 59.8°F15.4°C 70% 6.0 mph E9.7 kmh E 11.4 mph18.3 kmh 30.34 in1027.4 mb 0.00 in0.0 mm 0.00 in0.0 mm 0.00 in0.0 mm
09:30 AM 70.0°F21.1°C 60.2°F15.7°C 71% 5.4 mph E8.7 kmh E 11.4 mph18.3 kmh 30.34 in1027.4 mb 0.00 in0.0 mm 0.00 in0.0 mm 0.00 in0.0 mm
09:35 AM 70.2°F21.2°C 60.3°F15.7°C 71% 8.3 mph E13.4 kmh E 11.4 mph18.3 kmh 30.34 in1027.4 mb 0.00 in0.0 mm 0.00 in0.0 mm 0.00 in0.0 mm
09:40 AM 70.2°F21.2°C 59.9°F15.5°C 70% 7.6 mph E12.2 kmh E 11.4 mph18.3 kmh 30.35 in1027.8 mb 0.00 in0.0 mm 0.00 in0.0 mm 0.00 in0.0 mm
09:45 AM 70.5°F21.4°C 60.3°F15.7°C 70% 7.6 mph E12.2 kmh E 11.4 mph18.3 kmh 30.34 in1027.4 mb 0.00 in0.0 mm 0.00 in0.0 mm 0.00 in0.0 mm
09:50 AM 70.5°F21.4°C 60.3°F15.7°C 70% 5.4 mph E8.7 kmh E 11.4 mph18.3 kmh 30.35 in1027.8 mb 0.00 in0.0 mm 0.00 in0.0 mm 0.00 in0.0 mm
09:55 AM 70.5°F21.4°C 60.3°F15.7°C 70% 7.6 mph E12.2 kmh E 11.4 mph18.3 kmh 30.35 in1027.8 mb 0.00 in0.0 mm 0.00 in0.0 mm 0.00 in0.0 mm
10:00 AM 70.5°F21.4°C 60.3°F15.7°C 70% 5.4 mph E8.7 kmh E 9.8 mph15.8 kmh 30.35 in1027.8 mb 0.00 in0.0 mm 0.00 in0.0 mm 0.00 in0.0 mm
10:05 AM 70.9°F21.6°C 60.6°F15.9°C 70% 7.6 mph ESE12.2 kmh ESE 13.0 mph20.9 kmh 30.36 in1028.1 mb 0.00 in0.0 mm 0.00 in0.0 mm 0.00 in0.0 mm
10:10 AM 71.1°F21.7°C 60.8°F16.0°C 70% 10.7 mph ESE17.2 kmh ESE 13.0 mph20.9 kmh 30.35 in1027.8 mb 0.00 in0.0 mm 0.00 in0.0 mm 0.00 in0.0 mm
10:15 AM 72.5°F22.5°C 62.2°F16.8°C 70% 5.4 mph ESE8.7 kmh ESE 13.0 mph20.9 kmh 30.36 in1028.1 mb 0.00 in0.0 mm 0.00 in0.0 mm 0.00 in0.0 mm
10:20 AM 74.3°F23.5°C 63.1°F17.3°C 68% 9.2 mph SE14.8 kmh SE 13.0 mph20.9 kmh 30.34 in1027.4 mb 0.00 in0.0 mm 0.00 in0.0 mm 0.00 in0.0 mm
10:25 AM 76.8°F24.9°C 64.2°F17.9°C 65% 7.6 mph SE12.2 kmh SE 13.6 mph21.9 kmh 30.35 in1027.8 mb 0.00 in0.0 mm 0.00 in0.0 mm 0.00 in0.0 mm
10:30 AM 78.3°F25.7°C 64.7°F18.2°C 63% 9.2 mph SE14.8 kmh SE 15.2 mph24.5 kmh 30.36 in1028.1 mb 0.00 in0.0 mm 0.00 in0.0 mm 0.00 in0.0 mm
10:35 AM 78.8°F26.0°C 64.3°F17.9°C 61% 8.3 mph ESE13.4 kmh ESE 15.9 mph25.6 kmh 30.35 in1027.8 mb 0.00 in0.0 mm 0.00 in0.0 mm 0.00 in0.0 mm
10:40 AM 78.8°F26.0°C 63.8°F17.7°C 60% 6.9 mph ESE11.1 kmh ESE 15.9 mph25.6 kmh 30.35 in1027.8 mb 0.00 in0.0 mm 0.00 in0.0 mm 0.00 in0.0 mm
10:45 AM 79.0°F26.1°C 64.0°F17.8°C 60% 7.6 mph ESE12.2 kmh ESE 13.0 mph20.9 kmh 30.36 in1028.1 mb 0.00 in0.0 mm 0.00 in0.0 mm 0.00 in0.0 mm
10:50 AM 79.9°F26.6°C 64.8°F18.2°C 60% 6.9 mph ESE11.1 kmh ESE 14.5 mph23.3 kmh 30.36 in1028.1 mb 0.00 in0.0 mm 0.00 in0.0 mm 0.00 in0.0 mm
10:55 AM 80.8°F27.1°C 65.2°F18.4°C 59% 7.6 mph ESE12.2 kmh ESE 14.5 mph23.3 kmh 30.35 in1027.8 mb 0.00 in0.0 mm 0.00 in0.0 mm 0.00 in0.0 mm
11:00 AM 81.0°F27.2°C 64.3°F17.9°C 57% 4.5 mph ESE7.2 kmh ESE 13.6 mph21.9 kmh 30.36 in1028.1 mb 0.00 in0.0 mm 0.00 in0.0 mm 0.00 in0.0 mm
11:05 AM 80.1°F26.7°C 63.5°F17.5°C 57% 8.3 mph SE13.4 kmh SE 15.2 mph24.5 kmh 30.36 in1028.1 mb 0.00 in0.0 mm 0.00 in0.0 mm 0.00 in0.0 mm
11:10 AM 79.3°F26.3°C 63.3°F17.4°C 58% 4.5 mph SE7.2 kmh SE 15.2 mph24.5 kmh 30.36 in1028.1 mb 0.00 in0.0 mm 0.00 in0.0 mm 0.00 in0.0 mm
11:15 AM 78.4°F25.8°C 63.0°F17.2°C 59% 9.8 mph ESE15.8 kmh ESE 14.5 mph23.3 kmh 30.36 in1028.1 mb 0.00 in0.0 mm 0.00 in0.0 mm 0.00 in0.0 mm
11:20 AM 77.9°F25.5°C 62.9°F17.2°C 60% 6.9 mph ESE11.1 kmh ESE 14.5 mph23.3 kmh 30.36 in1028.1 mb 0.00 in0.0 mm 0.00 in0.0 mm 0.00 in0.0 mm
11:25 AM 78.6°F25.9°C 63.6°F17.6°C 60% 8.3 mph SE13.4 kmh SE 14.5 mph23.3 kmh 30.36 in1028.1 mb 0.00 in0.0 mm 0.00 in0.0 mm 0.00 in0.0 mm
11:30 AM 80.2°F26.8°C 64.7°F18.2°C 59% 8.3 mph SE13.4 kmh SE 13.0 mph20.9 kmh 30.36 in1028.1 mb 0.00 in0.0 mm 0.00 in0.0 mm 0.00 in0.0 mm
11:35 AM 81.7°F27.6°C 65.0°F18.3°C 57% 13.0 mph ESE20.9 kmh ESE 15.9 mph25.6 kmh 30.36 in1028.1 mb 0.00 in0.0 mm 0.00 in0.0 mm 0.00 in0.0 mm
11:40 AM 82.6°F28.1°C 65.3°F18.5°C 56% 8.3 mph ESE13.4 kmh ESE 15.9 mph25.6 kmh 30.36 in1028.1 mb 0.00 in0.0 mm 0.00 in0.0 mm 0.00 in0.0 mm
11:45 AM 83.8°F28.8°C 66.0°F18.9°C 55% 8.3 mph ESE13.4 kmh ESE 15.9 mph25.6 kmh 30.36 in1028.1 mb 0.00 in0.0 mm 0.00 in0.0 mm 0.00 in0.0 mm
11:50 AM 84.9°F29.4°C 65.9°F18.8°C 53% 9.2 mph E14.8 kmh E 13.6 mph21.9 kmh 30.35 in1027.8 mb 0.00 in0.0 mm 0.00 in0.0 mm 0.00 in0.0 mm
11:55 AM 85.3°F29.6°C 66.3°F19.1°C 53% 6.9 mph ESE11.1 kmh ESE 13.0 mph20.9 kmh 30.35 in1027.8 mb 0.00 in0.0 mm 0.00 in0.0 mm 0.00 in0.0 mm
12:00 PM 86.5°F30.3°C 66.3°F19.1°C 51% 6.9 mph ESE11.1 kmh ESE 13.6 mph21.9 kmh 30.35 in1027.8 mb 0.00 in0.0 mm 0.00 in0.0 mm 0.00 in0.0 mm
12:05 PM 87.3°F30.7°C 66.4°F19.1°C 50% 7.6 mph E12.2 kmh E 15.2 mph24.5 kmh 30.35 in1027.8 mb 0.00 in0.0 mm 0.00 in0.0 mm 0.00 in0.0 mm
12:10 PM 87.4°F30.8°C 66.0°F18.9°C 49% 9.8 mph SE15.8 kmh SE 15.2 mph24.5 kmh 30.34 in1027.4 mb 0.00 in0.0 mm 0.00 in0.0 mm 0.00 in0.0 mm
12:15 PM 88.0°F31.1°C 66.5°F19.2°C 49% 6.9 mph SE11.1 kmh SE 15.2 mph24.5 kmh 30.35 in1027.8 mb 0.00 in0.0 mm 0.00 in0.0 mm 0.00 in0.0 mm
12:20 PM 86.7°F30.4°C 64.7°F18.2°C 48% 6.9 mph ESE11.1 kmh ESE 14.5 mph23.3 kmh 30.35 in1027.8 mb 0.00 in0.0 mm 0.00 in0.0 mm 0.00 in0.0 mm
12:25 PM 84.9°F29.4°C 64.3°F17.9°C 50% 6.9 mph SE11.1 kmh SE 13.6 mph21.9 kmh 30.35 in1027.8 mb 0.00 in0.0 mm 0.00 in0.0 mm 0.00 in0.0 mm
12:30 PM 84.7°F29.3°C 64.7°F18.2°C 51% 11.4 mph SE18.3 kmh SE 15.9 mph25.6 kmh 30.34 in1027.4 mb 0.00 in0.0 mm 0.00 in0.0 mm 0.00 in0.0 mm
12:35 PM 85.6°F29.8°C 65.5°F18.6°C 51% 6.9 mph SE11.1 kmh SE 15.9 mph25.6 kmh 30.34 in1027.4 mb 0.00 in0.0 mm 0.00 in0.0 mm 0.00 in0.0 mm
12:40 PM 86.5°F30.3°C 65.7°F18.7°C 50% 5.4 mph SE8.7 kmh SE 15.9 mph25.6 kmh 30.34 in1027.4 mb 0.00 in0.0 mm 0.00 in0.0 mm 0.00 in0.0 mm
12:45 PM 87.6°F30.9°C 65.6°F18.7°C 48% 6.9 mph SSE11.1 kmh SSE 13.0 mph20.9 kmh 30.34 in1027.4 mb 0.00 in0.0 mm 0.00 in0.0 mm 0.00 in0.0 mm
12:50 PM 88.3°F31.3°C 66.2°F19.0°C 48% 9.8 mph SE15.8 kmh SE 15.2 mph24.5 kmh 30.34 in1027.4 mb 0.00 in0.0 mm 0.00 in0.0 mm 0.00 in0.0 mm
12:55 PM 88.9°F31.6°C 66.1°F18.9°C 47% 7.6 mph SE12.2 kmh SE 15.2 mph24.5 kmh 30.33 in1027.1 mb 0.00 in0.0 mm 0.00 in0.0 mm 0.00 in0.0 mm
01:00 PM 89.2°F31.8°C 65.8°F18.8°C 46% 8.3 mph SE13.4 kmh SE 15.2 mph24.5 kmh 30.33 in1027.1 mb 0.00 in0.0 mm 0.00 in0.0 mm 0.00 in0.0 mm
01:05 PM 89.6°F32.0°C 66.1°F18.9°C 46% 9.8 mph SE15.8 kmh SE 13.6 mph21.9 kmh 30.33 in1027.1 mb 0.00 in0.0 mm 0.00 in0.0 mm 0.00 in0.0 mm
01:10 PM 89.8°F32.1°C 66.3°F19.1°C 46% 6.9 mph SE11.1 kmh SE 13.6 mph21.9 kmh 30.33 in1027.1 mb 0.00 in0.0 mm 0.00 in0.0 mm 0.00 in0.0 mm
01:15 PM 90.5°F32.5°C 66.3°F19.1°C 45% 7.6 mph SE12.2 kmh SE 13.0 mph20.9 kmh 30.32 in1026.8 mb 0.00 in0.0 mm 0.00 in0.0 mm 0.00 in0.0 mm
01:20 PM 91.4°F33.0°C 67.1°F19.5°C 45% 9.8 mph E15.8 kmh E 13.6 mph21.9 kmh 30.32 in1026.8 mb 0.00 in0.0 mm 0.00 in0.0 mm 0.00 in0.0 mm
01:25 PM 90.7°F32.6°C 65.8°F18.8°C 44% 8.3 mph ENE13.4 kmh ENE 15.2 mph24.5 kmh 30.32 in1026.8 mb 0.00 in0.0 mm 0.00 in0.0 mm 0.00 in0.0 mm
01:30 PM 90.9°F32.7°C 66.0°F18.9°C 44% 6.9 mph ENE11.1 kmh ENE 15.2 mph24.5 kmh 30.32 in1026.8 mb 0.00 in0.0 mm 0.00 in0.0 mm 0.00 in0.0 mm
01:35 PM 91.0°F32.8°C 66.2°F19.0°C 44% 5.4 mph ENE8.7 kmh ENE 11.4 mph18.3 kmh 30.31 in1026.4 mb 0.00 in0.0 mm 0.00 in0.0 mm 0.00 in0.0 mm
01:40 PM 90.9°F32.7°C 65.3°F18.5°C 43% 9.2 mph ENE14.8 kmh ENE 13.0 mph20.9 kmh 30.31 in1026.4 mb 0.00 in0.0 mm 0.00 in0.0 mm 0.00 in0.0 mm
01:45 PM 91.0°F32.8°C 64.8°F18.2°C 42% 7.6 mph NE12.2 kmh NE 15.2 mph24.5 kmh 30.31 in1026.4 mb 0.00 in0.0 mm 0.00 in0.0 mm 0.00 in0.0 mm
01:50 PM 91.2°F32.9°C 65.0°F18.3°C 42% 0.7 mph NE1.1 kmh NE 15.2 mph24.5 kmh 30.31 in1026.4 mb 0.00 in0.0 mm 0.00 in0.0 mm 0.00 in0.0 mm
01:55 PM 92.5°F33.6°C 66.1°F18.9°C 42% 5.4 mph NE8.7 kmh NE 11.4 mph18.3 kmh 30.30 in1026.1 mb 0.00 in0.0 mm 0.00 in0.0 mm 0.00 in0.0 mm
02:00 PM 93.0°F33.9°C 65.9°F18.8°C 41% 5.4 mph NE8.7 kmh NE 10.7 mph17.2 kmh 30.30 in1026.1 mb 0.00 in0.0 mm 0.00 in0.0 mm 0.00 in0.0 mm
02:05 PM 93.0°F33.9°C 65.9°F18.8°C 41% 5.4 mph NE8.7 kmh NE 10.7 mph17.2 kmh 30.30 in1026.1 mb 0.00 in0.0 mm 0.00 in0.0 mm 0.00 in0.0 mm
02:10 PM 93.7°F34.3°C 65.8°F18.8°C 40% 5.4 mph E8.7 kmh E 9.8 mph15.8 kmh 30.29 in1025.7 mb 0.00 in0.0 mm 0.00 in0.0 mm 0.00 in0.0 mm
02:15 PM 94.8°F34.9°C 66.1°F18.9°C 39% 6.0 mph E9.7 kmh E 10.7 mph17.2 kmh 30.30 in1026.1 mb 0.00 in0.0 mm 0.00 in0.0 mm 0.00 in0.0 mm
02:20 PM 95.2°F35.1°C 66.4°F19.1°C 39% 6.0 mph E9.7 kmh E 11.4 mph18.3 kmh 30.29 in1025.7 mb 0.00 in0.0 mm 0.00 in0.0 mm 0.00 in0.0 mm
02:25 PM 95.2°F35.1°C 66.4°F19.1°C 39% 6.9 mph E11.1 kmh E 11.4 mph18.3 kmh 30.29 in1025.7 mb 0.00 in0.0 mm 0.00 in0.0 mm 0.00 in0.0 mm
02:30 PM 94.5°F34.7°C 65.8°F18.8°C 39% 6.9 mph ENE11.1 kmh ENE 11.4 mph18.3 kmh 30.29 in1025.7 mb 0.00 in0.0 mm 0.00 in0.0 mm 0.00 in0.0 mm
02:35 PM 94.3°F34.6°C 65.6°F18.7°C 39% 2.2 mph NE3.5 kmh NE 11.4 mph18.3 kmh 30.29 in1025.7 mb 0.00 in0.0 mm 0.00 in0.0 mm 0.00 in0.0 mm
02:40 PM 94.8°F34.9°C 66.1°F18.9°C 39% 6.0 mph NNE9.7 kmh NNE 11.4 mph18.3 kmh 30.28 in1025.4 mb 0.00 in0.0 mm 0.00 in0.0 mm 0.00 in0.0 mm
02:45 PM 94.8°F34.9°C 65.3°F18.5°C 38% 1.6 mph NE2.6 kmh NE 11.4 mph18.3 kmh 30.28 in1025.4 mb 0.00 in0.0 mm 0.00 in0.0 mm 0.00 in0.0 mm
02:50 PM 94.3°F34.6°C 64.8°F18.2°C 38% 5.4 mph E8.7 kmh E 9.2 mph14.8 kmh 30.27 in1025.1 mb 0.00 in0.0 mm 0.00 in0.0 mm 0.00 in0.0 mm
02:55 PM 94.5°F34.7°C 65.0°F18.3°C 38% 5.4 mph E8.7 kmh E 11.4 mph18.3 kmh 30.27 in1025.1 mb 0.00 in0.0 mm 0.00 in0.0 mm 0.00 in0.0 mm
03:00 PM 95.4°F35.2°C 65.8°F18.8°C 38% 0.7 mph E1.1 kmh E 11.4 mph18.3 kmh 30.27 in1025.1 mb 0.00 in0.0 mm 0.00 in0.0 mm 0.00 in0.0 mm
03:05 PM 96.4°F35.8°C 66.0°F18.9°C 37% 3.8 mph NE6.1 kmh NE 9.8 mph15.8 kmh 30.27 in1025.1 mb 0.00 in0.0 mm 0.00 in0.0 mm 0.00 in0.0 mm
03:10 PM 97.0°F36.1°C 66.5°F19.2°C 37% 2.2 mph E3.5 kmh E 10.7 mph17.2 kmh 30.26 in1024.7 mb 0.00 in0.0 mm 0.00 in0.0 mm 0.00 in0.0 mm
03:15 PM 97.3°F36.3°C 66.0°F18.9°C 36% 5.4 mph SE8.7 kmh SE 11.4 mph18.3 kmh 30.26 in1024.7 mb 0.00 in0.0 mm 0.00 in0.0 mm 0.00 in0.0 mm
03:20 PM 97.5°F36.4°C 66.2°F19.0°C 36% 5.4 mph ESE8.7 kmh ESE 11.4 mph18.3 kmh 30.26 in1024.7 mb 0.00 in0.0 mm 0.00 in0.0 mm 0.00 in0.0 mm
03:25 PM 97.7°F36.5°C 66.3°F19.1°C 36% 4.5 mph E7.2 kmh E 7.6 mph12.2 kmh 30.25 in1024.4 mb 0.00 in0.0 mm 0.00 in0.0 mm 0.00 in0.0 mm
03:30 PM 98.1°F36.7°C 65.8°F18.8°C 35% 5.4 mph ESE8.7 kmh ESE 9.2 mph14.8 kmh 30.25 in1024.4 mb 0.00 in0.0 mm 0.00 in0.0 mm 0.00 in0.0 mm
03:35 PM 97.9°F36.6°C 65.7°F18.7°C 35% 3.8 mph E6.1 kmh E 9.2 mph14.8 kmh 30.25 in1024.4 mb 0.00 in0.0 mm 0.00 in0.0 mm 0.00 in0.0 mm
03:40 PM 97.9°F36.6°C 65.7°F18.7°C 35% 1.6 mph E2.6 kmh E 9.2 mph14.8 kmh 30.25 in1024.4 mb 0.00 in0.0 mm 0.00 in0.0 mm 0.00 in0.0 mm
03:45 PM 97.3°F36.3°C 65.2°F18.4°C 35% 3.8 mph E6.1 kmh E 9.2 mph14.8 kmh 30.25 in1024.4 mb 0.00 in0.0 mm 0.00 in0.0 mm 0.00 in0.0 mm
03:50 PM 97.5°F36.4°C 64.5°F18.1°C 34% 4.5 mph NE7.2 kmh NE 9.2 mph14.8 kmh 30.24 in1024.0 mb 0.00 in0.0 mm 0.00 in0.0 mm 0.00 in0.0 mm
03:55 PM 97.2°F36.2°C 64.2°F17.9°C 34% 3.1 mph NE5.0 kmh NE 7.6 mph12.2 kmh 30.24 in1024.0 mb 0.00 in0.0 mm 0.00 in0.0 mm 0.00 in0.0 mm
04:00 PM 96.4°F35.8°C 63.6°F17.6°C 34% 6.9 mph NE11.1 kmh NE 10.7 mph17.2 kmh 30.24 in1024.0 mb 0.00 in0.0 mm 0.00 in0.0 mm 0.00 in0.0 mm
04:05 PM 96.4°F35.8°C 63.6°F17.6°C 34% 6.9 mph NE11.1 kmh NE 12.1 mph19.5 kmh 30.24 in1024.0 mb 0.00 in0.0 mm 0.00 in0.0 mm 0.00 in0.0 mm
04:10 PM 95.9°F35.5°C 63.1°F17.3°C 34% 5.4 mph NE8.7 kmh NE 12.1 mph19.5 kmh 30.24 in1024.0 mb 0.00 in0.0 mm 0.00 in0.0 mm 0.00 in0.0 mm
04:15 PM 95.0°F35.0°C 62.3°F16.8°C 34% 6.9 mph NE11.1 kmh NE 9.8 mph15.8 kmh 30.23 in1023.7 mb 0.00 in0.0 mm 0.00 in0.0 mm 0.00 in0.0 mm
04:20 PM 93.7°F34.3°C 62.0°F16.7°C 35% 5.4 mph NNE8.7 kmh NNE 9.8 mph15.8 kmh 30.23 in1023.7 mb 0.00 in0.0 mm 0.00 in0.0 mm 0.00 in0.0 mm
04:25 PM 92.1°F33.4°C 61.4°F16.3°C 36% 7.6 mph NE12.2 kmh NE 9.8 mph15.8 kmh 30.23 in1023.7 mb 0.00 in0.0 mm 0.00 in0.0 mm 0.00 in0.0 mm
04:30 PM 92.7°F33.7°C 61.9°F16.6°C 36% 7.6 mph NNE12.2 kmh NNE 9.8 mph15.8 kmh 30.22 in1023.4 mb 0.00 in0.0 mm 0.00 in0.0 mm 0.00 in0.0 mm
04:35 PM 93.0°F33.9°C 62.2°F16.8°C 36% 6.9 mph N11.1 kmh N 9.8 mph15.8 kmh 30.22 in1023.4 mb 0.00 in0.0 mm 0.00 in0.0 mm 0.00 in0.0 mm
04:40 PM 93.4°F34.1°C 62.5°F16.9°C 36% 5.4 mph NNE8.7 kmh NNE 10.7 mph17.2 kmh 30.22 in1023.4 mb 0.00 in0.0 mm 0.00 in0.0 mm 0.00 in0.0 mm
04:45 PM 93.0°F33.9°C 62.2°F16.8°C 36% 6.0 mph NNE9.7 kmh NNE 11.4 mph18.3 kmh 30.22 in1023.4 mb 0.00 in0.0 mm 0.00 in0.0 mm 0.00 in0.0 mm
04:50 PM 91.4°F33.0°C 60.8°F16.0°C 36% 6.9 mph NE11.1 kmh NE 11.4 mph18.3 kmh 30.22 in1023.4 mb 0.00 in0.0 mm 0.00 in0.0 mm 0.00 in0.0 mm
04:55 PM 90.0°F32.2°C 60.3°F15.7°C 37% 6.0 mph NE9.7 kmh NE 10.7 mph17.2 kmh 30.22 in1023.4 mb 0.00 in0.0 mm 0.00 in0.0 mm 0.00 in0.0 mm
05:00 PM 89.2°F31.8°C 60.4°F15.8°C 38% 5.4 mph NNE8.7 kmh NNE 11.4 mph18.3 kmh 30.21 in1023.0 mb 0.00 in0.0 mm 0.00 in0.0 mm 0.00 in0.0 mm
05:05 PM 88.2°F31.2°C 60.1°F15.6°C 39% 5.4 mph N8.7 kmh N 11.4 mph18.3 kmh 30.21 in1023.0 mb 0.00 in0.0 mm 0.00 in0.0 mm 0.00 in0.0 mm
05:10 PM 88.0°F31.1°C 60.0°F15.6°C 39% 6.9 mph N11.1 kmh N 9.2 mph14.8 kmh 30.21 in1023.0 mb 0.00 in0.0 mm 0.00 in0.0 mm 0.00 in0.0 mm
05:15 PM 86.9°F30.5°C 59.7°F15.4°C 40% 0.7 mph N1.1 kmh N 9.2 mph14.8 kmh 30.21 in1023.0 mb 0.00 in0.0 mm 0.00 in0.0 mm 0.00 in0.0 mm
05:20 PM 86.0°F30.0°C 59.6°F15.3°C 41% 4.5 mph N7.2 kmh N 9.2 mph14.8 kmh 30.21 in1023.0 mb 0.00 in0.0 mm 0.00 in0.0 mm 0.00 in0.0 mm
05:25 PM 85.1°F29.5°C 59.5°F15.3°C 42% 2.2 mph NE3.5 kmh NE 7.6 mph12.2 kmh 30.21 in1023.0 mb 0.00 in0.0 mm 0.00 in0.0 mm 0.00 in0.0 mm
05:30 PM 86.0°F30.0°C 60.3°F15.7°C 42% 1.6 mph NE2.6 kmh NE 7.6 mph12.2 kmh 30.20 in1022.7 mb 0.00 in0.0 mm 0.00 in0.0 mm 0.00 in0.0 mm
05:35 PM 86.9°F30.5°C 61.1°F16.2°C 42% 0.7 mph SE1.1 kmh SE 4.5 mph7.2 kmh 30.20 in1022.7 mb 0.00 in0.0 mm 0.00 in0.0 mm 0.00 in0.0 mm
05:40 PM 87.3°F30.7°C 60.7°F15.9°C 41% 3.1 mph SW5.0 kmh SW 5.4 mph8.7 kmh 30.20 in1022.7 mb 0.00 in0.0 mm 0.00 in0.0 mm 0.00 in0.0 mm
05:45 PM 87.8°F31.0°C 61.2°F16.2°C 41% 3.1 mph NNW5.0 kmh NNW 6.0 mph9.7 kmh 30.20 in1022.7 mb 0.00 in0.0 mm 0.00 in0.0 mm 0.00 in0.0 mm
05:50 PM 87.8°F31.0°C 61.2°F16.2°C 41% 3.8 mph NNE6.1 kmh NNE 6.9 mph11.1 kmh 30.19 in1022.4 mb 0.00 in0.0 mm 0.00 in0.0 mm 0.00 in0.0 mm
05:55 PM 87.8°F31.0°C 60.5°F15.8°C 40% 7.6 mph NNE12.2 kmh NNE 9.8 mph15.8 kmh 30.19 in1022.4 mb 0.00 in0.0 mm 0.00 in0.0 mm 0.00 in0.0 mm
06:00 PM 87.4°F30.8°C 60.2°F15.7°C 40% 2.2 mph NE3.5 kmh NE 9.8 mph15.8 kmh 30.19 in1022.4 mb 0.00 in0.0 mm 0.00 in0.0 mm 0.00 in0.0 mm
06:05 PM 87.3°F30.7°C 60.7°F15.9°C 41% 3.1 mph ENE5.0 kmh ENE 9.8 mph15.8 kmh 30.19 in1022.4 mb 0.00 in0.0 mm 0.00 in0.0 mm 0.00 in0.0 mm
06:10 PM 87.1°F30.6°C 60.6°F15.9°C 41% 1.6 mph NE2.6 kmh NE 5.4 mph8.7 kmh 30.19 in1022.4 mb 0.00 in0.0 mm 0.00 in0.0 mm 0.00 in0.0 mm
06:15 PM 86.9°F30.5°C 60.4°F15.8°C 41% 3.1 mph N5.0 kmh N 5.4 mph8.7 kmh 30.19 in1022.4 mb 0.00 in0.0 mm 0.00 in0.0 mm 0.00 in0.0 mm
06:20 PM 86.9°F30.5°C 60.4°F15.8°C 41% 1.6 mph N2.6 kmh N 4.5 mph7.2 kmh 30.19 in1022.4 mb 0.00 in0.0 mm 0.00 in0.0 mm 0.00 in0.0 mm
06:25 PM 86.5°F30.3°C 60.1°F15.6°C 41% 3.1 mph N5.0 kmh N 5.4 mph8.7 kmh 30.18 in1022.0 mb 0.00 in0.0 mm 0.00 in0.0 mm 0.00 in0.0 mm
06:30 PM 86.4°F30.2°C 59.9°F15.5°C 41% 3.1 mph N5.0 kmh N 6.9 mph11.1 kmh 30.19 in1022.4 mb 0.00 in0.0 mm 0.00 in0.0 mm 0.00 in0.0 mm
06:35 PM 86.0°F30.0°C 60.3°F15.7°C 42% 3.8 mph NNE6.1 kmh NNE 6.9 mph11.1 kmh 30.19 in1022.4 mb 0.00 in0.0 mm 0.00 in0.0 mm 0.00 in0.0 mm
06:40 PM 85.6°F29.8°C 60.0°F15.6°C 42% 2.2 mph NNE3.5 kmh NNE 6.9 mph11.1 kmh 30.19 in1022.4 mb 0.00 in0.0 mm 0.00 in0.0 mm 0.00 in0.0 mm
06:45 PM 85.1°F29.5°C 59.5°F15.3°C 42% 3.1 mph NNE5.0 kmh NNE 6.9 mph11.1 kmh 30.19 in1022.4 mb 0.00 in0.0 mm 0.00 in0.0 mm 0.00 in0.0 mm
06:50 PM 84.6°F29.2°C 59.7°F15.4°C 43% 3.1 mph NE5.0 kmh NE 6.9 mph11.1 kmh 30.19 in1022.4 mb 0.00 in0.0 mm 0.00 in0.0 mm 0.00 in0.0 mm
06:55 PM 84.2°F29.0°C 59.3°F15.2°C 43% 2.2 mph E3.5 kmh E 5.4 mph8.7 kmh 30.19 in1022.4 mb 0.00 in0.0 mm 0.00 in0.0 mm 0.00 in0.0 mm
07:00 PM 83.8°F28.8°C 59.0°F15.0°C 43% 3.1 mph ENE5.0 kmh ENE 5.4 mph8.7 kmh 30.19 in1022.4 mb 0.00 in0.0 mm 0.00 in0.0 mm 0.00 in0.0 mm
07:05 PM 83.3°F28.5°C 59.2°F15.1°C 44% 2.2 mph NNE3.5 kmh NNE 6.9 mph11.1 kmh 30.18 in1022.0 mb 0.00 in0.0 mm 0.00 in0.0 mm 0.00 in0.0 mm
07:10 PM 83.1°F28.4°C 59.0°F15.0°C 44% 3.1 mph N5.0 kmh N 6.9 mph11.1 kmh 30.18 in1022.0 mb 0.00 in0.0 mm 0.00 in0.0 mm 0.00 in0.0 mm
07:15 PM 82.4°F28.0°C 59.0°F15.0°C 45% 3.1 mph N5.0 kmh N 5.4 mph8.7 kmh 30.19 in1022.4 mb 0.00 in0.0 mm 0.00 in0.0 mm 0.00 in0.0 mm
07:20 PM 81.9°F27.7°C 59.1°F15.1°C 46% 2.2 mph N3.5 kmh N 5.4 mph8.7 kmh 30.19 in1022.4 mb 0.00 in0.0 mm 0.00 in0.0 mm 0.00 in0.0 mm
07:25 PM 81.1°F27.3°C 58.4°F14.7°C 46% 4.5 mph NW7.2 kmh NW 8.3 mph13.4 kmh 30.19 in1022.4 mb 0.00 in0.0 mm 0.00 in0.0 mm 0.00 in0.0 mm
07:30 PM 80.8°F27.1°C 59.3°F15.2°C 48% 6.9 mph W11.1 kmh W 8.3 mph13.4 kmh 30.19 in1022.4 mb 0.00 in0.0 mm 0.00 in0.0 mm 0.00 in0.0 mm
07:35 PM 80.1°F26.7°C 59.2°F15.1°C 49% 7.6 mph W12.2 kmh W 9.8 mph15.8 kmh 30.19 in1022.4 mb 0.00 in0.0 mm 0.00 in0.0 mm 0.00 in0.0 mm
07:40 PM 79.7°F26.5°C 59.5°F15.3°C 50% 4.5 mph W7.2 kmh W 10.7 mph17.2 kmh 30.19 in1022.4 mb 0.00 in0.0 mm 0.00 in0.0 mm 0.00 in0.0 mm
07:45 PM 79.2°F26.2°C 59.5°F15.3°C 51% 5.4 mph WNW8.7 kmh WNW 10.7 mph17.2 kmh 30.20 in1022.7 mb 0.00 in0.0 mm 0.00 in0.0 mm 0.00 in0.0 mm
07:50 PM 78.6°F25.9°C 59.0°F15.0°C 51% 5.4 mph WNW8.7 kmh WNW 10.7 mph17.2 kmh 30.19 in1022.4 mb 0.00 in0.0 mm 0.00 in0.0 mm 0.00 in0.0 mm
07:55 PM 78.4°F25.8°C 59.4°F15.2°C 52% 3.8 mph W6.1 kmh W 9.2 mph14.8 kmh 30.20 in1022.7 mb 0.00 in0.0 mm 0.00 in0.0 mm 0.00 in0.0 mm
08:00 PM 77.9°F25.5°C 59.4°F15.2°C 53% 1.6 mph WNW2.6 kmh WNW 9.2 mph14.8 kmh 30.20 in1022.7 mb 0.00 in0.0 mm 0.00 in0.0 mm 0.00 in0.0 mm
08:05 PM 77.4°F25.2°C 58.9°F14.9°C 53% 4.5 mph W7.2 kmh W 7.6 mph12.2 kmh 30.20 in1022.7 mb 0.00 in0.0 mm 0.00 in0.0 mm 0.00 in0.0 mm
08:10 PM 77.2°F25.1°C 59.3°F15.2°C 54% 3.8 mph WNW6.1 kmh WNW 7.6 mph12.2 kmh 30.20 in1022.7 mb 0.00 in0.0 mm 0.00 in0.0 mm 0.00 in0.0 mm
08:15 PM 76.8°F24.9°C 59.0°F15.0°C 54% 3.1 mph NW5.0 kmh NW 6.0 mph9.7 kmh 30.20 in1022.7 mb 0.00 in0.0 mm 0.00 in0.0 mm 0.00 in0.0 mm
08:20 PM 76.6°F24.8°C 59.3°F15.2°C 55% 4.5 mph NW7.2 kmh NW 6.9 mph11.1 kmh 30.21 in1023.0 mb 0.00 in0.0 mm 0.00 in0.0 mm 0.00 in0.0 mm
08:25 PM 76.1°F24.5°C 59.3°F15.2°C 56% 3.1 mph NW5.0 kmh NW 6.9 mph11.1 kmh 30.21 in1023.0 mb 0.00 in0.0 mm 0.00 in0.0 mm 0.00 in0.0 mm
08:30 PM 75.9°F24.4°C 59.1°F15.1°C 56% 2.2 mph NW3.5 kmh NW 6.9 mph11.1 kmh 30.20 in1022.7 mb 0.00 in0.0 mm 0.00 in0.0 mm 0.00 in0.0 mm
08:35 PM 75.6°F24.2°C 59.3°F15.2°C 57% 3.1 mph NNW5.0 kmh NNW 6.9 mph11.1 kmh 30.20 in1022.7 mb 0.00 in0.0 mm 0.00 in0.0 mm 0.00 in0.0 mm
08:40 PM 75.2°F24.0°C 59.0°F15.0°C 57% 3.1 mph N5.0 kmh N 4.5 mph7.2 kmh 30.21 in1023.0 mb 0.00 in0.0 mm 0.00 in0.0 mm 0.00 in0.0 mm
08:45 PM 75.0°F23.9°C 59.3°F15.2°C 58% 3.1 mph N5.0 kmh N 6.9 mph11.1 kmh 30.21 in1023.0 mb 0.00 in0.0 mm 0.00 in0.0 mm 0.00 in0.0 mm
08:50 PM 74.7°F23.7°C 58.9°F14.9°C 58% 3.8 mph N6.1 kmh N 6.9 mph11.1 kmh 30.20 in1022.7 mb 0.00 in0.0 mm 0.00 in0.0 mm 0.00 in0.0 mm
08:55 PM 74.3°F23.5°C 59.1°F15.1°C 59% 3.1 mph N5.0 kmh N 6.0 mph9.7 kmh 30.21 in1023.0 mb 0.00 in0.0 mm 0.00 in0.0 mm 0.00 in0.0 mm
09:00 PM 73.9°F23.3°C 58.7°F14.8°C 59% 3.8 mph N6.1 kmh N 6.0 mph9.7 kmh 30.21 in1023.0 mb 0.00 in0.0 mm 0.00 in0.0 mm 0.00 in0.0 mm
09:05 PM 73.8°F23.2°C 59.0°F15.0°C 60% 5.4 mph N8.7 kmh N 6.9 mph11.1 kmh 30.21 in1023.0 mb 0.00 in0.0 mm 0.00 in0.0 mm 0.00 in0.0 mm
09:10 PM 73.4°F23.0°C 58.7°F14.8°C 60% 4.5 mph N7.2 kmh N 6.9 mph11.1 kmh 30.21 in1023.0 mb 0.00 in0.0 mm 0.00 in0.0 mm 0.00 in0.0 mm
09:15 PM 73.2°F22.9°C 59.0°F15.0°C 61% 4.5 mph N7.2 kmh N 7.6 mph12.2 kmh 30.21 in1023.0 mb 0.00 in0.0 mm 0.00 in0.0 mm 0.00 in0.0 mm
09:20 PM 73.0°F22.8°C 59.3°F15.2°C 62% 4.5 mph NNE7.2 kmh NNE 7.6 mph12.2 kmh 30.22 in1023.4 mb 0.00 in0.0 mm 0.00 in0.0 mm 0.00 in0.0 mm
09:25 PM 72.9°F22.7°C 59.6°F15.3°C 63% 6.0 mph N9.7 kmh N 7.6 mph12.2 kmh 30.21 in1023.0 mb 0.00 in0.0 mm 0.00 in0.0 mm 0.00 in0.0 mm
09:30 PM 72.7°F22.6°C 59.4°F15.2°C 63% 4.5 mph N7.2 kmh N 7.6 mph12.2 kmh 30.22 in1023.4 mb 0.00 in0.0 mm 0.00 in0.0 mm 0.00 in0.0 mm
09:35 PM 72.5°F22.5°C 59.2°F15.1°C 63% 3.8 mph N6.1 kmh N 7.6 mph12.2 kmh 30.22 in1023.4 mb 0.00 in0.0 mm 0.00 in0.0 mm 0.00 in0.0 mm
09:40 PM 72.3°F22.4°C 59.5°F15.3°C 64% 3.8 mph N6.1 kmh N 7.6 mph12.2 kmh 30.21 in1023.0 mb 0.00 in0.0 mm 0.00 in0.0 mm 0.00 in0.0 mm
09:45 PM 72.1°F22.3°C 59.3°F15.2°C 64% 2.2 mph N3.5 kmh N 7.6 mph12.2 kmh 30.22 in1023.4 mb 0.00 in0.0 mm 0.00 in0.0 mm 0.00 in0.0 mm
09:50 PM 72.0°F22.2°C 59.6°F15.3°C 65% 1.6 mph N2.6 kmh N 6.0 mph9.7 kmh 30.22 in1023.4 mb 0.00 in0.0 mm 0.00 in0.0 mm 0.00 in0.0 mm
09:55 PM 71.8°F22.1°C 59.4°F15.2°C 65% 0.7 mph N1.1 kmh N 3.8 mph6.1 kmh 30.22 in1023.4 mb 0.00 in0.0 mm 0.00 in0.0 mm 0.00 in0.0 mm
10:00 PM 71.6°F22.0°C 59.2°F15.1°C 65% 1.6 mph SE2.6 kmh SE 3.1 mph5.0 kmh 30.23 in1023.7 mb 0.00 in0.0 mm 0.00 in0.0 mm 0.00 in0.0 mm
10:05 PM 71.2°F21.8°C 58.9°F14.9°C 65% 3.1 mph ESE5.0 kmh ESE 4.5 mph7.2 kmh 30.23 in1023.7 mb 0.00 in0.0 mm 0.00 in0.0 mm 0.00 in0.0 mm
10:10 PM 71.2°F21.8°C 58.9°F14.9°C 65% 7.6 mph E12.2 kmh E 12.1 mph19.5 kmh 30.22 in1023.4 mb 0.00 in0.0 mm 0.00 in0.0 mm 0.00 in0.0 mm
10:15 PM 71.6°F22.0°C 59.2°F15.1°C 65% 7.6 mph E12.2 kmh E 13.6 mph21.9 kmh 30.23 in1023.7 mb 0.00 in0.0 mm 0.00 in0.0 mm 0.00 in0.0 mm
10:20 PM 71.6°F22.0°C 58.8°F14.9°C 64% 5.4 mph E8.7 kmh E 13.6 mph21.9 kmh 30.23 in1023.7 mb 0.00 in0.0 mm 0.00 in0.0 mm 0.00 in0.0 mm
10:25 PM 71.8°F22.1°C 59.0°F15.0°C 64% 11.4 mph E18.3 kmh E 15.9 mph25.6 kmh 30.23 in1023.7 mb 0.00 in0.0 mm 0.00 in0.0 mm 0.00 in0.0 mm
10:30 PM 72.0°F22.2°C 58.7°F14.8°C 63% 6.9 mph E11.1 kmh E 15.9 mph25.6 kmh 30.23 in1023.7 mb 0.00 in0.0 mm 0.00 in0.0 mm 0.00 in0.0 mm
10:35 PM 72.0°F22.2°C 58.7°F14.8°C 63% 6.0 mph E9.7 kmh E 15.9 mph25.6 kmh 30.24 in1024.0 mb 0.00 in0.0 mm 0.00 in0.0 mm 0.00 in0.0 mm
10:40 PM 72.0°F22.2°C 58.7°F14.8°C 63% 9.2 mph E14.8 kmh E 13.0 mph20.9 kmh 30.24 in1024.0 mb 0.00 in0.0 mm 0.00 in0.0 mm 0.00 in0.0 mm
10:45 PM 72.1°F22.3°C 58.4°F14.7°C 62% 9.8 mph E15.8 kmh E 13.6 mph21.9 kmh 30.25 in1024.4 mb 0.00 in0.0 mm 0.00 in0.0 mm 0.00 in0.0 mm
10:50 PM 72.1°F22.3°C 58.4°F14.7°C 62% 9.2 mph ESE14.8 kmh ESE 13.6 mph21.9 kmh 30.24 in1024.0 mb 0.00 in0.0 mm 0.00 in0.0 mm 0.00 in0.0 mm
10:55 PM 72.1°F22.3°C 58.4°F14.7°C 62% 8.3 mph E13.4 kmh E 13.6 mph21.9 kmh 30.24 in1024.0 mb 0.00 in0.0 mm 0.00 in0.0 mm 0.00 in0.0 mm
11:00 PM 72.1°F22.3°C 58.4°F14.7°C 62% 7.6 mph E12.2 kmh E 15.2 mph24.5 kmh 30.24 in1024.0 mb 0.00 in0.0 mm 0.00 in0.0 mm 0.00 in0.0 mm
11:05 PM 72.0°F22.2°C 58.3°F14.6°C 62% 6.9 mph E11.1 kmh E 15.2 mph24.5 kmh 30.24 in1024.0 mb 0.00 in0.0 mm 0.00 in0.0 mm 0.00 in0.0 mm
11:10 PM 72.0°F22.2°C 58.3°F14.6°C 62% 8.3 mph ESE13.4 kmh ESE 13.0 mph20.9 kmh 30.24 in1024.0 mb 0.00 in0.0 mm 0.00 in0.0 mm 0.00 in0.0 mm
11:15 PM 71.8°F22.1°C 58.1°F14.5°C 62% 7.6 mph ESE12.2 kmh ESE 12.1 mph19.5 kmh 30.24 in1024.0 mb 0.00 in0.0 mm 0.00 in0.0 mm 0.00 in0.0 mm
11:20 PM 71.8°F22.1°C 58.1°F14.5°C 62% 6.0 mph E9.7 kmh E 13.0 mph20.9 kmh 30.25 in1024.4 mb 0.00 in0.0 mm 0.00 in0.0 mm 0.00 in0.0 mm
11:25 PM 71.6°F22.0°C 57.9°F14.4°C 62% 5.4 mph E8.7 kmh E 15.2 mph24.5 kmh 30.24 in1024.0 mb 0.00 in0.0 mm 0.00 in0.0 mm 0.00 in0.0 mm
11:30 PM 71.4°F21.9°C 57.7°F14.3°C 62% 10.7 mph E17.2 kmh E 15.2 mph24.5 kmh 30.24 in1024.0 mb 0.00 in0.0 mm 0.00 in0.0 mm 0.00 in0.0 mm
11:35 PM 71.4°F21.9°C 58.2°F14.6°C 63% 6.9 mph E11.1 kmh E 13.6 mph21.9 kmh 30.24 in1024.0 mb 0.00 in0.0 mm 0.00 in0.0 mm 0.00 in0.0 mm
11:40 PM 71.2°F21.8°C 58.0°F14.4°C 63% 6.9 mph E11.1 kmh E 13.6 mph21.9 kmh 30.24 in1024.0 mb 0.00 in0.0 mm 0.00 in0.0 mm 0.00 in0.0 mm
11:45 PM 71.2°F21.8°C 58.0°F14.4°C 63% 9.8 mph E15.8 kmh E 14.5 mph23.3 kmh 30.25 in1024.4 mb 0.00 in0.0 mm 0.00 in0.0 mm 0.00 in0.0 mm
11:50 PM 71.1°F21.7°C 57.9°F14.4°C 63% 3.8 mph E6.1 kmh E 14.5 mph23.3 kmh 30.24 in1024.0 mb 0.00 in0.0 mm 0.00 in0.0 mm 0.00 in0.0 mm
11:55 PM 71.1°F21.7°C 57.9°F14.4°C 63% 6.9 mph E11.1 kmh E 13.6 mph21.9 kmh 30.24 in1024.0 mb 0.00 in0.0 mm 0.00 in0.0 mm 0.00 in0.0 mm